KMMU/MMU METAR and TAF weather

Enter ICAO airport designator
Station Type Date Time Source
KMMU METAR 2021/01/15 23:45 UTC NOAA

KMMU 152345Z 07004KT 7SM RA OVC012 06/06 A2989


Station Type Date Time Source
KMMU Decoded METAR 2021/01/15 23:45 UTC NOAA

Morristown Municipal, NJ, United States (KMMU) 40-48N 074-25W
Jan 15, 2021 - 06:45 PM EST / 2021.01.15 2345 UTC
Wind: from the ENE (070 degrees) at 5 MPH (4 KT):0
Visibility: 7 mile(s):0
Sky conditions: overcast
Weather: rain
Temperature: 42 F (6 C)
Dew Point: 42 F (6 C)
Relative Humidity: 100%
Pressure (altimeter): 29.89 in. Hg (1012 hPa)
ob: KMMU 152345Z 07004KT 7SM RA OVC012 06/06 A2989
cycle: 0

Station Type Date Time Source
KMMU TAF UTC NOAA

Error!

Example: see airport list